This is the latest recevied weather packets stored in our database for station/object F4AMY-13. If no packets are shown the sender has not sent any weather packets the latest 10 day(s).
| Time | Temp. | Humidity | Pressure | Rain* | Wind** | Luminosity | Snow |
|---|---|---|---|---|---|---|---|
| 1776928376 | 15.56° C | 65% | 1020.8 hPa | 0 mm | 16.09 m/s, ° | 36 W/m² | - |
| 1776928076 | 15.56° C | 71% | 1020.7 hPa | 0 mm | 16.54 m/s, ° | 37 W/m² | - |
| 1776927775 | 15.56° C | 71% | 1020.7 hPa | 0 mm | 18.78 m/s, ° | 42 W/m² | - |
| 1776927475 | 15° C | 73% | 1020.8 hPa | 0 mm | 20.56 m/s, ° | 46 W/m² | - |
| 1776927175 | 15° C | 72% | 1020.8 hPa | 0 mm | 20.12 m/s, ° | 45 W/m² | - |
| 1776926875 | 15° C | 74% | 1020.6 hPa | 0 mm | 19.67 m/s, ° | 44 W/m² | - |
| 1776926575 | 14.44° C | 74% | 1020.4 hPa | 0 mm | 20.56 m/s, ° | 46 W/m² | - |
| 1776926275 | 14.44° C | 73% | 1020.5 hPa | 0 mm | 20.12 m/s, ° | 45 W/m² | - |
| 1776925975 | 14.44° C | 73% | 1020.6 hPa | 0 mm | 20.56 m/s, ° | 46 W/m² | - |
| 1776925675 | 13.89° C | 74% | 1020.4 hPa | 0 mm | 21.9 m/s, ° | 49 W/m² | - |
| 1776925375 | 13.89° C | 76% | 1020.4 hPa | 0 mm | 19.67 m/s, ° | 44 W/m² | - |
| 1776925075 | 13.89° C | 75% | 1020.4 hPa | 0 mm | 13.41 m/s, ° | 30 W/m² | - |
| 1776924775 | 13.89° C | 75% | 1020.4 hPa | 0 mm | 8.49 m/s, ° | 19 W/m² | - |
| 1776924475 | 13.33° C | 75% | 1020.4 hPa | 0 mm | 9.39 m/s, ° | 21 W/m² | - |
| 1776924175 | 13.33° C | 74% | 1020.4 hPa | 0 mm | 2.24 m/s, ° | 5 W/m² | - |
| 1776923875 | 13.33° C | 75% | 1020.5 hPa | 0 mm | 1.79 m/s, ° | 4 W/m² | - |
| 1776923575 | 13.33° C | 75% | 1020.2 hPa | 0 mm | 2.68 m/s, ° | 6 W/m² | - |
| 1776923274 | 13.33° C | 75% | 1020.1 hPa | 0 mm | 0 m/s | 0 W/m² | - |
| 1776922974 | 12.78° C | 74% | 1020.2 hPa | 0 mm | 0 m/s | 0 W/m² | - |
| 1776922674 | 12.78° C | 74% | 1020 hPa | 0 mm | 0 m/s | 0 W/m² | - |
| 1776922374 | 12.78° C | 76% | 1020 hPa | 0 mm | 0 m/s | 0 W/m² | - |
| 1776922074 | 12.78° C | 75% | 1020.1 hPa | 0 mm | 0 m/s | 0 W/m² | - |
| 1776921774 | 12.78° C | 75% | 1019.6 hPa | 0 mm | 0 m/s | 0 W/m² | - |
| 1776921474 | 12.78° C | 76% | 1019.7 hPa | 0 mm | 0 m/s | 0 W/m² | - |
| 1776921174 | 12.22° C | 77% | 1019.5 hPa | 0 mm | 0 m/s | 0 W/m² | - |
* Rain latest hour (hover to see other rain measurements)
** Current wind speed in m/s (hover to see current wind gust speed)